sensor_id;sensor_type;location;lat;lon;timestamp;P1;durP1;ratioP1;P2;durP2;ratioP2
59273;SDS011;45044;41.572;24.730;2022-07-04T00:00:52;8.32;;;5.60;;
59273;SDS011;45044;41.572;24.730;2022-07-04T00:03:19;9.60;;;6.13;;
59273;SDS011;45044;41.572;24.730;2022-07-04T00:05:45;7.72;;;6.18;;
59273;SDS011;45044;41.572;24.730;2022-07-04T00:08:12;8.52;;;6.70;;
59273;SDS011;45044;41.572;24.730;2022-07-04T00:10:39;9.10;;;7.07;;
59273;SDS011;45044;41.572;24.730;2022-07-04T00:13:06;9.52;;;6.38;;
59273;SDS011;45044;41.572;24.730;2022-07-04T00:15:32;8.45;;;6.30;;
59273;SDS011;45044;41.572;24.730;2022-07-04T00:17:59;8.30;;;6.65;;
59273;SDS011;45044;41.572;24.730;2022-07-04T00:20:26;8.60;;;7.07;;
59273;SDS011;45044;41.572;24.730;2022-07-04T00:22:53;7.93;;;6.75;;
59273;SDS011;45044;41.572;24.730;2022-07-04T00:25:19;9.35;;;6.78;;
59273;SDS011;45044;41.572;24.730;2022-07-04T00:27:46;7.53;;;6.70;;
59273;SDS011;45044;41.572;24.730;2022-07-04T00:30:13;8.13;;;6.55;;
59273;SDS011;45044;41.572;24.730;2022-07-04T00:32:40;8.60;;;6.53;;
59273;SDS011;45044;41.572;24.730;2022-07-04T00:35:07;9.13;;;6.57;;
59273;SDS011;45044;41.572;24.730;2022-07-04T00:37:34;8.85;;;6.30;;
59273;SDS011;45044;41.572;24.730;2022-07-04T00:40:01;7.70;;;6.32;;
59273;SDS011;45044;41.572;24.730;2022-07-04T00:42:28;9.18;;;6.85;;
59273;SDS011;45044;41.572;24.730;2022-07-04T00:44:55;9.90;;;7.57;;
59273;SDS011;45044;41.572;24.730;2022-07-04T00:47:21;8.38;;;6.88;;
59273;SDS011;45044;41.572;24.730;2022-07-04T00:49:48;8.63;;;6.68;;
59273;SDS011;45044;41.572;24.730;2022-07-04T00:52:15;8.82;;;6.93;;
59273;SDS011;45044;41.572;24.730;2022-07-04T00:54:43;7.90;;;5.97;;
59273;SDS011;45044;41.572;24.730;2022-07-04T00:57:12;7.80;;;6.28;;
59273;SDS011;45044;41.572;24.730;2022-07-04T00:59:38;8.45;;;5.78;;
59273;SDS011;45044;41.572;24.730;2022-07-04T01:02:05;8.15;;;6.60;;
59273;SDS011;45044;41.572;24.730;2022-07-04T01:04:32;8.85;;;6.75;;
59273;SDS011;45044;41.572;24.730;2022-07-04T01:07:00;9.30;;;7.15;;
59273;SDS011;45044;41.572;24.730;2022-07-04T01:09:27;8.25;;;6.78;;
59273;SDS011;45044;41.572;24.730;2022-07-04T01:11:53;9.15;;;6.82;;
59273;SDS011;45044;41.572;24.730;2022-07-04T01:14:20;9.05;;;6.97;;
59273;SDS011;45044;41.572;24.730;2022-07-04T01:16:47;10.68;;;7.78;;
59273;SDS011;45044;41.572;24.730;2022-07-04T01:19:14;11.15;;;8.07;;
59273;SDS011;45044;41.572;24.730;2022-07-04T01:21:40;8.75;;;6.72;;
59273;SDS011;45044;41.572;24.730;2022-07-04T01:24:10;8.20;;;6.63;;
59273;SDS011;45044;41.572;24.730;2022-07-04T01:26:37;9.52;;;6.90;;
59273;SDS011;45044;41.572;24.730;2022-07-04T01:29:04;10.52;;;7.70;;
59273;SDS011;45044;41.572;24.730;2022-07-04T01:31:31;9.43;;;7.68;;
59273;SDS011;45044;41.572;24.730;2022-07-04T01:33:58;11.63;;;8.07;;
59273;SDS011;45044;41.572;24.730;2022-07-04T01:36:24;8.55;;;6.97;;
59273;SDS011;45044;41.572;24.730;2022-07-04T01:38:51;9.23;;;7.55;;
59273;SDS011;45044;41.572;24.730;2022-07-04T01:41:18;9.85;;;7.45;;
59273;SDS011;45044;41.572;24.730;2022-07-04T01:43:44;10.00;;;7.50;;
59273;SDS011;45044;41.572;24.730;2022-07-04T01:46:11;9.57;;;7.45;;
59273;SDS011;45044;41.572;24.730;2022-07-04T01:48:38;9.77;;;7.25;;
59273;SDS011;45044;41.572;24.730;2022-07-04T01:51:05;10.55;;;7.40;;
59273;SDS011;45044;41.572;24.730;2022-07-04T01:53:35;11.32;;;7.40;;
59273;SDS011;45044;41.572;24.730;2022-07-04T01:56:02;9.70;;;7.35;;
59273;SDS011;45044;41.572;24.730;2022-07-04T01:58:29;9.40;;;7.13;;
59273;SDS011;45044;41.572;24.730;2022-07-04T02:00:56;10.57;;;6.78;;
59273;SDS011;45044;41.572;24.730;2022-07-04T02:03:41;11.35;;;6.90;;
59273;SDS011;45044;41.572;24.730;2022-07-04T02:06:08;8.63;;;6.70;;
59273;SDS011;45044;41.572;24.730;2022-07-04T02:08:34;9.27;;;6.85;;
59273;SDS011;45044;41.572;24.730;2022-07-04T02:11:20;9.57;;;7.18;;
59273;SDS011;45044;41.572;24.730;2022-07-04T02:13:46;9.00;;;6.40;;
59273;SDS011;45044;41.572;24.730;2022-07-04T02:16:13;10.25;;;6.50;;
59273;SDS011;45044;41.572;24.730;2022-07-04T02:18:40;8.98;;;6.63;;
59273;SDS011;45044;41.572;24.730;2022-07-04T02:21:06;7.90;;;6.68;;
59273;SDS011;45044;41.572;24.730;2022-07-04T02:23:33;10.13;;;6.55;;
59273;SDS011;45044;41.572;24.730;2022-07-04T02:26:00;8.32;;;6.53;;
59273;SDS011;45044;41.572;24.730;2022-07-04T02:28:26;11.55;;;7.28;;
59273;SDS011;45044;41.572;24.730;2022-07-04T02:30:53;9.30;;;7.03;;
59273;SDS011;45044;41.572;24.730;2022-07-04T02:33:20;8.80;;;7.10;;
59273;SDS011;45044;41.572;24.730;2022-07-04T02:35:46;10.63;;;8.18;;
59273;SDS011;45044;41.572;24.730;2022-07-04T02:38:13;9.18;;;7.82;;
59273;SDS011;45044;41.572;24.730;2022-07-04T02:40:40;9.30;;;7.55;;
59273;SDS011;45044;41.572;24.730;2022-07-04T02:43:06;10.07;;;7.65;;
59273;SDS011;45044;41.572;24.730;2022-07-04T02:45:33;10.18;;;7.40;;
59273;SDS011;45044;41.572;24.730;2022-07-04T02:48:00;8.27;;;7.20;;
59273;SDS011;45044;41.572;24.730;2022-07-04T02:50:26;9.77;;;7.50;;
59273;SDS011;45044;41.572;24.730;2022-07-04T02:52:53;9.43;;;7.65;;
59273;SDS011;45044;41.572;24.730;2022-07-04T02:55:20;9.07;;;7.18;;
59273;SDS011;45044;41.572;24.730;2022-07-04T02:57:47;9.45;;;7.10;;
59273;SDS011;45044;41.572;24.730;2022-07-04T03:00:13;10.85;;;7.75;;
59273;SDS011;45044;41.572;24.730;2022-07-04T03:02:40;8.90;;;6.72;;
59273;SDS011;45044;41.572;24.730;2022-07-04T03:05:07;9.45;;;7.28;;
59273;SDS011;45044;41.572;24.730;2022-07-04T03:07:34;10.07;;;7.03;;
59273;SDS011;45044;41.572;24.730;2022-07-04T03:10:01;8.30;;;6.88;;
59273;SDS011;45044;41.572;24.730;2022-07-04T03:12:28;10.23;;;7.07;;
59273;SDS011;45044;41.572;24.730;2022-07-04T03:14:54;8.43;;;6.68;;
59273;SDS011;45044;41.572;24.730;2022-07-04T03:17:21;8.75;;;6.68;;
59273;SDS011;45044;41.572;24.730;2022-07-04T03:19:48;8.15;;;7.07;;
59273;SDS011;45044;41.572;24.730;2022-07-04T03:22:14;10.02;;;7.30;;
59273;SDS011;45044;41.572;24.730;2022-07-04T03:24:41;9.63;;;7.05;;
59273;SDS011;45044;41.572;24.730;2022-07-04T03:27:08;9.40;;;7.25;;
59273;SDS011;45044;41.572;24.730;2022-07-04T03:29:35;9.77;;;7.07;;
59273;SDS011;45044;41.572;24.730;2022-07-04T03:32:01;9.82;;;7.30;;
59273;SDS011;45044;41.572;24.730;2022-07-04T03:34:28;9.65;;;7.13;;
59273;SDS011;45044;41.572;24.730;2022-07-04T03:36:55;10.85;;;7.47;;
59273;SDS011;45044;41.572;24.730;2022-07-04T03:39:22;10.35;;;7.28;;
59273;SDS011;45044;41.572;24.730;2022-07-04T03:41:48;10.15;;;7.30;;
59273;SDS011;45044;41.572;24.730;2022-07-04T03:44:15;9.38;;;7.28;;
59273;SDS011;45044;41.572;24.730;2022-07-04T03:46:42;9.27;;;7.22;;
59273;SDS011;45044;41.572;24.730;2022-07-04T03:49:09;8.60;;;6.72;;
59273;SDS011;45044;41.572;24.730;2022-07-04T03:51:35;9.80;;;7.25;;
59273;SDS011;45044;41.572;24.730;2022-07-04T03:54:02;9.60;;;7.80;;
59273;SDS011;45044;41.572;24.730;2022-07-04T03:56:29;9.88;;;7.43;;
59273;SDS011;45044;41.572;24.730;2022-07-04T03:58:57;10.02;;;8.15;;
59273;SDS011;45044;41.572;24.730;2022-07-04T04:01:23;11.15;;;8.10;;
59273;SDS011;45044;41.572;24.730;2022-07-04T04:03:50;12.15;;;8.02;;
59273;SDS011;45044;41.572;24.730;2022-07-04T04:06:35;9.73;;;8.18;;
59273;SDS011;45044;41.572;24.730;2022-07-04T04:09:02;10.88;;;8.40;;
59273;SDS011;45044;41.572;24.730;2022-07-04T04:11:35;10.73;;;8.65;;
59273;SDS011;45044;41.572;24.730;2022-07-04T04:14:02;11.45;;;8.88;;
59273;SDS011;45044;41.572;24.730;2022-07-04T04:16:28;12.48;;;8.50;;
59273;SDS011;45044;41.572;24.730;2022-07-04T04:18:55;13.18;;;8.75;;
59273;SDS011;45044;41.572;24.730;2022-07-04T04:21:22;11.60;;;8.70;;
59273;SDS011;45044;41.572;24.730;2022-07-04T04:23:49;11.05;;;8.05;;
59273;SDS011;45044;41.572;24.730;2022-07-04T04:26:15;10.10;;;8.35;;
59273;SDS011;45044;41.572;24.730;2022-07-04T04:28:43;9.98;;;8.70;;
59273;SDS011;45044;41.572;24.730;2022-07-04T04:31:09;10.82;;;8.65;;
59273;SDS011;45044;41.572;24.730;2022-07-04T04:33:36;10.25;;;9.13;;
59273;SDS011;45044;41.572;24.730;2022-07-04T04:36:03;12.77;;;8.90;;
59273;SDS011;45044;41.572;24.730;2022-07-04T04:38:30;12.13;;;8.45;;
59273;SDS011;45044;41.572;24.730;2022-07-04T04:40:56;12.25;;;10.00;;
59273;SDS011;45044;41.572;24.730;2022-07-04T04:43:23;11.48;;;8.38;;
59273;SDS011;45044;41.572;24.730;2022-07-04T04:45:50;10.80;;;8.20;;
59273;SDS011;45044;41.572;24.730;2022-07-04T04:48:16;10.68;;;8.15;;
59273;SDS011;45044;41.572;24.730;2022-07-04T04:50:43;11.55;;;7.75;;
59273;SDS011;45044;41.572;24.730;2022-07-04T04:53:10;10.38;;;7.25;;
59273;SDS011;45044;41.572;24.730;2022-07-04T04:55:37;11.43;;;6.78;;
59273;SDS011;45044;41.572;24.730;2022-07-04T04:58:03;9.00;;;6.38;;
59273;SDS011;45044;41.572;24.730;2022-07-04T05:00:30;8.75;;;7.15;;
59273;SDS011;45044;41.572;24.730;2022-07-04T05:02:57;7.93;;;6.55;;
59273;SDS011;45044;41.572;24.730;2022-07-04T05:05:24;7.90;;;6.47;;
59273;SDS011;45044;41.572;24.730;2022-07-04T05:07:51;7.75;;;6.57;;
59273;SDS011;45044;41.572;24.730;2022-07-04T05:10:18;7.85;;;6.45;;
59273;SDS011;45044;41.572;24.730;2022-07-04T05:12:45;8.30;;;6.30;;
59273;SDS011;45044;41.572;24.730;2022-07-04T05:15:12;7.38;;;6.38;;
59273;SDS011;45044;41.572;24.730;2022-07-04T05:17:39;7.75;;;6.07;;
59273;SDS011;45044;41.572;24.730;2022-07-04T05:20:05;6.85;;;5.60;;
59273;SDS011;45044;41.572;24.730;2022-07-04T05:22:34;7.32;;;6.10;;
59273;SDS011;45044;41.572;24.730;2022-07-04T05:25:01;7.40;;;5.72;;
59273;SDS011;45044;41.572;24.730;2022-07-04T05:27:28;6.18;;;5.57;;
59273;SDS011;45044;41.572;24.730;2022-07-04T05:29:57;8.25;;;6.03;;
59273;SDS011;45044;41.572;24.730;2022-07-04T05:32:27;7.72;;;5.30;;
59273;SDS011;45044;41.572;24.730;2022-07-04T05:34:54;10.38;;;5.72;;
59273;SDS011;45044;41.572;24.730;2022-07-04T05:37:21;7.78;;;6.00;;
59273;SDS011;45044;41.572;24.730;2022-07-04T05:39:47;6.60;;;5.10;;
59273;SDS011;45044;41.572;24.730;2022-07-04T05:42:15;8.23;;;5.00;;
59273;SDS011;45044;41.572;24.730;2022-07-04T05:44:43;5.78;;;4.80;;
59273;SDS011;45044;41.572;24.730;2022-07-04T05:47:10;6.68;;;4.80;;
59273;SDS011;45044;41.572;24.730;2022-07-04T05:49:37;6.53;;;4.95;;
59273;SDS011;45044;41.572;24.730;2022-07-04T05:52:04;5.20;;;4.65;;
59273;SDS011;45044;41.572;24.730;2022-07-04T05:54:30;6.75;;;5.20;;
59273;SDS011;45044;41.572;24.730;2022-07-04T05:56:58;6.20;;;4.53;;
59273;SDS011;45044;41.572;24.730;2022-07-04T05:59:24;7.63;;;5.30;;
59273;SDS011;45044;41.572;24.730;2022-07-04T06:01:51;7.63;;;5.10;;
59273;SDS011;45044;41.572;24.730;2022-07-04T06:04:18;6.45;;;5.00;;
59273;SDS011;45044;41.572;24.730;2022-07-04T06:06:45;7.10;;;4.65;;
59273;SDS011;45044;41.572;24.730;2022-07-04T06:09:11;7.15;;;4.93;;
59273;SDS011;45044;41.572;24.730;2022-07-04T06:11:42;8.27;;;5.10;;
59273;SDS011;45044;41.572;24.730;2022-07-04T06:14:09;10.93;;;5.60;;
59273;SDS011;45044;41.572;24.730;2022-07-04T06:16:35;7.82;;;5.20;;
59273;SDS011;45044;41.572;24.730;2022-07-04T06:19:02;10.20;;;5.70;;
59273;SDS011;45044;41.572;24.730;2022-07-04T06:21:29;6.93;;;4.70;;
59273;SDS011;45044;41.572;24.730;2022-07-04T06:23:56;7.80;;;4.72;;
59273;SDS011;45044;41.572;24.730;2022-07-04T06:26:24;6.45;;;4.35;;
59273;SDS011;45044;41.572;24.730;2022-07-04T06:28:51;7.40;;;4.55;;
59273;SDS011;45044;41.572;24.730;2022-07-04T06:31:17;7.07;;;4.68;;
59273;SDS011;45044;41.572;24.730;2022-07-04T06:33:44;4.95;;;3.90;;
59273;SDS011;45044;41.572;24.730;2022-07-04T06:36:30;6.47;;;4.05;;
59273;SDS011;45044;41.572;24.730;2022-07-04T06:38:57;7.40;;;3.75;;
59273;SDS011;45044;41.572;24.730;2022-07-04T06:41:23;7.68;;;3.80;;
59273;SDS011;45044;41.572;24.730;2022-07-04T06:43:50;4.30;;;3.17;;
59273;SDS011;45044;41.572;24.730;2022-07-04T06:46:17;6.30;;;3.50;;
59273;SDS011;45044;41.572;24.730;2022-07-04T06:48:43;5.18;;;3.38;;
59273;SDS011;45044;41.572;24.730;2022-07-04T06:51:10;4.50;;;2.90;;
59273;SDS011;45044;41.572;24.730;2022-07-04T06:53:40;5.65;;;3.08;;
59273;SDS011;45044;41.572;24.730;2022-07-04T06:56:09;4.88;;;3.15;;
59273;SDS011;45044;41.572;24.730;2022-07-04T06:58:35;3.45;;;3.03;;
59273;SDS011;45044;41.572;24.730;2022-07-04T07:01:02;5.40;;;3.40;;
59273;SDS011;45044;41.572;24.730;2022-07-04T07:03:29;4.80;;;2.97;;
59273;SDS011;45044;41.572;24.730;2022-07-04T07:05:55;5.97;;;3.10;;
59273;SDS011;45044;41.572;24.730;2022-07-04T07:08:28;4.65;;;2.88;;
59273;SDS011;45044;41.572;24.730;2022-07-04T07:10:56;5.03;;;2.90;;
59273;SDS011;45044;41.572;24.730;2022-07-04T07:13:23;5.47;;;3.25;;
59273;SDS011;45044;41.572;24.730;2022-07-04T07:15:50;6.30;;;3.65;;
59273;SDS011;45044;41.572;24.730;2022-07-04T07:18:16;4.80;;;2.47;;
59273;SDS011;45044;41.572;24.730;2022-07-04T07:20:43;3.97;;;2.70;;
59273;SDS011;45044;41.572;24.730;2022-07-04T07:23:10;5.45;;;2.90;;
59273;SDS011;45044;41.572;24.730;2022-07-04T07:25:37;4.18;;;2.78;;
59273;SDS011;45044;41.572;24.730;2022-07-04T07:28:04;5.82;;;3.35;;
59273;SDS011;45044;41.572;24.730;2022-07-04T07:30:30;5.00;;;2.70;;
59273;SDS011;45044;41.572;24.730;2022-07-04T07:32:57;3.88;;;2.70;;
59273;SDS011;45044;41.572;24.730;2022-07-04T07:35:24;4.18;;;2.50;;
59273;SDS011;45044;41.572;24.730;2022-07-04T07:37:51;4.78;;;3.00;;
59273;SDS011;45044;41.572;24.730;2022-07-04T07:40:18;5.28;;;2.72;;
59273;SDS011;45044;41.572;24.730;2022-07-04T07:42:44;4.82;;;2.72;;
59273;SDS011;45044;41.572;24.730;2022-07-04T07:45:11;4.40;;;2.58;;
59273;SDS011;45044;41.572;24.730;2022-07-04T07:47:38;3.65;;;2.30;;
59273;SDS011;45044;41.572;24.730;2022-07-04T07:50:05;4.60;;;2.55;;
59273;SDS011;45044;41.572;24.730;2022-07-04T07:52:32;5.07;;;2.40;;
59273;SDS011;45044;41.572;24.730;2022-07-04T07:54:59;3.75;;;2.78;;
59273;SDS011;45044;41.572;24.730;2022-07-04T07:57:27;5.05;;;2.40;;
59273;SDS011;45044;41.572;24.730;2022-07-04T07:59:54;3.17;;;2.33;;
59273;SDS011;45044;41.572;24.730;2022-07-04T08:02:21;3.55;;;2.50;;
59273;SDS011;45044;41.572;24.730;2022-07-04T08:05:09;3.75;;;2.30;;
59273;SDS011;45044;41.572;24.730;2022-07-04T08:07:37;5.82;;;2.45;;
59273;SDS011;45044;41.572;24.730;2022-07-04T08:10:04;3.47;;;2.35;;
59273;SDS011;45044;41.572;24.730;2022-07-04T08:12:31;4.53;;;2.45;;
59273;SDS011;45044;41.572;24.730;2022-07-04T08:14:58;2.83;;;2.13;;
59273;SDS011;45044;41.572;24.730;2022-07-04T08:17:31;2.63;;;1.95;;
59273;SDS011;45044;41.572;24.730;2022-07-04T08:19:58;2.90;;;1.60;;
59273;SDS011;45044;41.572;24.730;2022-07-04T08:22:25;2.17;;;1.50;;
59273;SDS011;45044;41.572;24.730;2022-07-04T08:24:51;2.22;;;1.63;;
59273;SDS011;45044;41.572;24.730;2022-07-04T08:27:19;2.78;;;1.80;;
59273;SDS011;45044;41.572;24.730;2022-07-04T08:29:57;2.33;;;1.17;;
59273;SDS011;45044;41.572;24.730;2022-07-04T08:32:23;2.00;;;1.38;;
59273;SDS011;45044;41.572;24.730;2022-07-04T08:34:50;2.72;;;2.08;;
59273;SDS011;45044;41.572;24.730;2022-07-04T08:37:17;1.95;;;1.45;;
59273;SDS011;45044;41.572;24.730;2022-07-04T08:39:44;2.72;;;1.70;;
59273;SDS011;45044;41.572;24.730;2022-07-04T08:42:17;4.10;;;1.70;;
59273;SDS011;45044;41.572;24.730;2022-07-04T08:44:47;1.77;;;1.30;;
59273;SDS011;45044;41.572;24.730;2022-07-04T08:47:19;3.10;;;1.10;;
59273;SDS011;45044;41.572;24.730;2022-07-04T08:49:54;2.70;;;0.90;;
59273;SDS011;45044;41.572;24.730;2022-07-04T08:52:47;1.65;;;1.13;;
59273;SDS011;45044;41.572;24.730;2022-07-04T08:55:36;2.10;;;1.10;;
59273;SDS011;45044;41.572;24.730;2022-07-04T08:58:24;1.98;;;1.00;;
59273;SDS011;45044;41.572;24.730;2022-07-04T09:00:52;1.65;;;1.10;;
59273;SDS011;45044;41.572;24.730;2022-07-04T09:03:20;1.23;;;1.02;;
59273;SDS011;45044;41.572;24.730;2022-07-04T09:05:48;2.58;;;1.17;;
59273;SDS011;45044;41.572;24.730;2022-07-04T09:08:15;1.75;;;1.10;;
59273;SDS011;45044;41.572;24.730;2022-07-04T09:10:42;1.58;;;0.98;;
59273;SDS011;45044;41.572;24.730;2022-07-04T09:13:09;2.47;;;1.20;;
59273;SDS011;45044;41.572;24.730;2022-07-04T09:15:41;1.25;;;1.13;;
59273;SDS011;45044;41.572;24.730;2022-07-04T09:18:22;1.92;;;0.98;;
59273;SDS011;45044;41.572;24.730;2022-07-04T09:20:58;2.60;;;1.10;;
59273;SDS011;45044;41.572;24.730;2022-07-04T09:23:31;2.20;;;1.27;;
59273;SDS011;45044;41.572;24.730;2022-07-04T09:28:38;1.80;;;1.10;;
59273;SDS011;45044;41.572;24.730;2022-07-04T09:31:23;1.73;;;0.90;;
59273;SDS011;45044;41.572;24.730;2022-07-04T09:33:52;1.17;;;1.00;;
59273;SDS011;45044;41.572;24.730;2022-07-04T09:36:28;1.30;;;0.77;;
59273;SDS011;45044;41.572;24.730;2022-07-04T09:44:18;2.85;;;1.23;;
59273;SDS011;45044;41.572;24.730;2022-07-04T09:46:45;6.18;;;1.10;;
59273;SDS011;45044;41.572;24.730;2022-07-04T09:49:13;2.22;;;0.90;;
59273;SDS011;45044;41.572;24.730;2022-07-04T09:56:49;1.27;;;0.77;;
59273;SDS011;45044;41.572;24.730;2022-07-04T09:59:20;1.63;;;0.70;;
59273;SDS011;45044;41.572;24.730;2022-07-04T10:01:48;1.15;;;0.60;;
59273;SDS011;45044;41.572;24.730;2022-07-04T10:04:15;2.00;;;0.80;;
59273;SDS011;45044;41.572;24.730;2022-07-04T10:06:43;2.58;;;1.05;;
59273;SDS011;45044;41.572;24.730;2022-07-04T10:09:12;1.65;;;1.05;;
59273;SDS011;45044;41.572;24.730;2022-07-04T10:11:41;2.75;;;0.90;;
59273;SDS011;45044;41.572;24.730;2022-07-04T10:14:10;1.88;;;0.73;;
59273;SDS011;45044;41.572;24.730;2022-07-04T10:16:38;1.40;;;0.88;;
59273;SDS011;45044;41.572;24.730;2022-07-04T10:19:07;1.73;;;0.90;;
59273;SDS011;45044;41.572;24.730;2022-07-04T10:21:36;0.93;;;0.82;;
59273;SDS011;45044;41.572;24.730;2022-07-04T10:24:03;2.60;;;1.00;;
59273;SDS011;45044;41.572;24.730;2022-07-04T10:26:30;2.15;;;0.80;;
59273;SDS011;45044;41.572;24.730;2022-07-04T10:28:58;2.05;;;1.20;;
59273;SDS011;45044;41.572;24.730;2022-07-04T10:31:26;1.33;;;0.70;;
59273;SDS011;45044;41.572;24.730;2022-07-04T10:33:55;2.03;;;0.80;;
59273;SDS011;45044;41.572;24.730;2022-07-04T10:36:25;1.42;;;0.90;;
59273;SDS011;45044;41.572;24.730;2022-07-04T10:38:57;1.08;;;0.77;;
59273;SDS011;45044;41.572;24.730;2022-07-04T10:41:26;1.88;;;0.70;;
59273;SDS011;45044;41.572;24.730;2022-07-04T10:46:27;1.30;;;0.70;;
59273;SDS011;45044;41.572;24.730;2022-07-04T10:48:57;1.20;;;0.73;;
59273;SDS011;45044;41.572;24.730;2022-07-04T10:54:02;1.13;;;0.70;;
59273;SDS011;45044;41.572;24.730;2022-07-04T10:56:34;1.83;;;0.80;;
59273;SDS011;45044;41.572;24.730;2022-07-04T10:59:23;2.22;;;0.90;;
59273;SDS011;45044;41.572;24.730;2022-07-04T11:17:59;1.10;;;0.60;;
59273;SDS011;45044;41.572;24.730;2022-07-04T11:20:28;0.90;;;0.70;;
59273;SDS011;45044;41.572;24.730;2022-07-04T11:23:06;1.40;;;0.70;;
59273;SDS011;45044;41.572;24.730;2022-07-04T11:25:34;0.75;;;0.50;;
59273;SDS011;45044;41.572;24.730;2022-07-04T11:28:20;0.98;;;0.77;;
59273;SDS011;45044;41.572;24.730;2022-07-04T11:31:08;1.45;;;0.60;;
59273;SDS011;45044;41.572;24.730;2022-07-04T11:33:37;1.10;;;0.55;;
59273;SDS011;45044;41.572;24.730;2022-07-04T11:36:09;1.10;;;0.70;;
59273;SDS011;45044;41.572;24.730;2022-07-04T11:38:58;1.40;;;0.85;;
59273;SDS011;45044;41.572;24.730;2022-07-04T11:41:28;1.77;;;0.90;;
59273;SDS011;45044;41.572;24.730;2022-07-04T11:44:22;1.33;;;0.50;;
59273;SDS011;45044;41.572;24.730;2022-07-04T11:47:13;1.17;;;0.70;;
59273;SDS011;45044;41.572;24.730;2022-07-04T11:52:22;1.30;;;0.68;;
59273;SDS011;45044;41.572;24.730;2022-07-04T11:55:11;1.00;;;0.73;;
59273;SDS011;45044;41.572;24.730;2022-07-04T11:57:40;1.40;;;0.82;;
59273;SDS011;45044;41.572;24.730;2022-07-04T12:00:12;0.80;;;0.60;;
59273;SDS011;45044;41.572;24.730;2022-07-04T12:02:45;1.10;;;0.70;;
59273;SDS011;45044;41.572;24.730;2022-07-04T12:05:14;1.10;;;0.73;;
59273;SDS011;45044;41.572;24.730;2022-07-04T12:07:42;2.30;;;1.00;;
59273;SDS011;45044;41.572;24.730;2022-07-04T12:10:31;1.10;;;0.80;;
59273;SDS011;45044;41.572;24.730;2022-07-04T12:12:59;1.00;;;0.60;;
59273;SDS011;45044;41.572;24.730;2022-07-04T12:15:36;1.55;;;0.90;;
59273;SDS011;45044;41.572;24.730;2022-07-04T12:18:03;0.70;;;0.70;;
59273;SDS011;45044;41.572;24.730;2022-07-04T12:20:32;1.42;;;0.85;;
59273;SDS011;45044;41.572;24.730;2022-07-04T12:23:00;3.67;;;0.75;;
59273;SDS011;45044;41.572;24.730;2022-07-04T12:28:01;1.20;;;0.80;;
59273;SDS011;45044;41.572;24.730;2022-07-04T12:30:40;0.80;;;0.70;;
59273;SDS011;45044;41.572;24.730;2022-07-04T12:33:18;1.42;;;1.00;;
59273;SDS011;45044;41.572;24.730;2022-07-04T12:35:47;1.55;;;1.00;;
59273;SDS011;45044;41.572;24.730;2022-07-04T12:41:00;1.38;;;0.90;;
59273;SDS011;45044;41.572;24.730;2022-07-04T12:46:11;1.75;;;1.00;;
59273;SDS011;45044;41.572;24.730;2022-07-04T12:48:50;1.98;;;0.90;;
59273;SDS011;45044;41.572;24.730;2022-07-04T12:51:20;2.15;;;1.08;;
59273;SDS011;45044;41.572;24.730;2022-07-04T12:53:47;2.30;;;1.23;;
59273;SDS011;45044;41.572;24.730;2022-07-04T12:58:58;1.45;;;1.10;;
59273;SDS011;45044;41.572;24.730;2022-07-04T13:01:28;1.98;;;1.20;;
59273;SDS011;45044;41.572;24.730;2022-07-04T13:03:55;3.15;;;1.40;;
59273;SDS011;45044;41.572;24.730;2022-07-04T13:06:22;1.33;;;1.10;;
59273;SDS011;45044;41.572;24.730;2022-07-04T13:08:49;1.70;;;1.30;;
59273;SDS011;45044;41.572;24.730;2022-07-04T13:11:17;2.50;;;1.10;;
59273;SDS011;45044;41.572;24.730;2022-07-04T13:14:02;2.40;;;1.10;;
59273;SDS011;45044;41.572;24.730;2022-07-04T13:16:28;3.05;;;1.65;;
59273;SDS011;45044;41.572;24.730;2022-07-04T13:18:55;2.63;;;1.50;;
59273;SDS011;45044;41.572;24.730;2022-07-04T13:21:23;3.72;;;1.80;;
59273;SDS011;45044;41.572;24.730;2022-07-04T13:23:50;2.13;;;1.50;;
59273;SDS011;45044;41.572;24.730;2022-07-04T13:26:19;2.17;;;1.48;;
59273;SDS011;45044;41.572;24.730;2022-07-04T13:28:46;3.25;;;1.63;;
59273;SDS011;45044;41.572;24.730;2022-07-04T13:31:13;5.47;;;1.73;;
59273;SDS011;45044;41.572;24.730;2022-07-04T13:33:41;3.47;;;1.90;;
59273;SDS011;45044;41.572;24.730;2022-07-04T13:36:07;4.88;;;1.83;;
59273;SDS011;45044;41.572;24.730;2022-07-04T13:38:34;2.95;;;1.95;;
59273;SDS011;45044;41.572;24.730;2022-07-04T13:41:01;3.72;;;2.20;;
59273;SDS011;45044;41.572;24.730;2022-07-04T13:43:28;4.28;;;1.88;;
59273;SDS011;45044;41.572;24.730;2022-07-04T13:45:55;4.38;;;2.20;;
59273;SDS011;45044;41.572;24.730;2022-07-04T13:48:23;2.92;;;2.20;;
59273;SDS011;45044;41.572;24.730;2022-07-04T13:50:51;2.53;;;2.05;;
59273;SDS011;45044;41.572;24.730;2022-07-04T13:53:18;3.67;;;2.10;;
59273;SDS011;45044;41.572;24.730;2022-07-04T13:55:44;3.42;;;1.88;;
59273;SDS011;45044;41.572;24.730;2022-07-04T13:58:14;3.42;;;2.13;;
59273;SDS011;45044;41.572;24.730;2022-07-04T14:00:41;4.88;;;2.30;;
59273;SDS011;45044;41.572;24.730;2022-07-04T14:03:12;4.53;;;2.58;;
59273;SDS011;45044;41.572;24.730;2022-07-04T14:05:42;3.33;;;2.40;;
59273;SDS011;45044;41.572;24.730;2022-07-04T14:08:09;3.42;;;2.20;;
59273;SDS011;45044;41.572;24.730;2022-07-04T14:10:36;4.07;;;2.50;;
59273;SDS011;45044;41.572;24.730;2022-07-04T14:13:03;4.70;;;2.72;;
59273;SDS011;45044;41.572;24.730;2022-07-04T14:15:35;5.03;;;2.97;;
59273;SDS011;45044;41.572;24.730;2022-07-04T14:18:02;3.80;;;2.60;;
59273;SDS011;45044;41.572;24.730;2022-07-04T14:20:32;4.13;;;2.85;;
59273;SDS011;45044;41.572;24.730;2022-07-04T14:22:59;7.28;;;3.08;;
59273;SDS011;45044;41.572;24.730;2022-07-04T14:25:26;5.00;;;2.90;;
59273;SDS011;45044;41.572;24.730;2022-07-04T14:27:53;6.30;;;2.40;;
59273;SDS011;45044;41.572;24.730;2022-07-04T14:30:20;3.92;;;2.63;;
59273;SDS011;45044;41.572;24.730;2022-07-04T14:32:47;4.32;;;2.92;;
59273;SDS011;45044;41.572;24.730;2022-07-04T14:35:13;5.70;;;2.63;;
59273;SDS011;45044;41.572;24.730;2022-07-04T14:37:40;3.92;;;2.67;;
59273;SDS011;45044;41.572;24.730;2022-07-04T14:40:07;4.22;;;2.67;;
59273;SDS011;45044;41.572;24.730;2022-07-04T14:42:35;5.20;;;3.10;;
59273;SDS011;45044;41.572;24.730;2022-07-04T14:45:02;5.78;;;3.10;;
59273;SDS011;45044;41.572;24.730;2022-07-04T14:47:29;5.22;;;3.33;;
59273;SDS011;45044;41.572;24.730;2022-07-04T14:50:00;6.43;;;3.00;;
59273;SDS011;45044;41.572;24.730;2022-07-04T14:52:27;5.90;;;3.50;;
59273;SDS011;45044;41.572;24.730;2022-07-04T14:54:54;4.90;;;2.95;;
59273;SDS011;45044;41.572;24.730;2022-07-04T14:57:21;5.75;;;3.17;;
59273;SDS011;45044;41.572;24.730;2022-07-04T14:59:47;5.35;;;3.47;;
59273;SDS011;45044;41.572;24.730;2022-07-04T15:02:14;5.60;;;3.05;;
59273;SDS011;45044;41.572;24.730;2022-07-04T15:04:41;4.45;;;3.28;;
59273;SDS011;45044;41.572;24.730;2022-07-04T15:07:07;6.22;;;3.67;;
59273;SDS011;45044;41.572;24.730;2022-07-04T15:09:34;6.30;;;3.60;;
59273;SDS011;45044;41.572;24.730;2022-07-04T15:12:01;5.70;;;3.90;;
59273;SDS011;45044;41.572;24.730;2022-07-04T15:14:28;6.82;;;4.30;;
59273;SDS011;45044;41.572;24.730;2022-07-04T15:16:54;4.80;;;3.20;;
59273;SDS011;45044;41.572;24.730;2022-07-04T15:19:21;5.97;;;3.40;;
59273;SDS011;45044;41.572;24.730;2022-07-04T15:21:48;7.07;;;3.90;;
59273;SDS011;45044;41.572;24.730;2022-07-04T15:24:33;5.32;;;3.33;;
59273;SDS011;45044;41.572;24.730;2022-07-04T15:26:59;5.88;;;3.35;;
59273;SDS011;45044;41.572;24.730;2022-07-04T15:29:26;5.15;;;3.83;;